sensor_id;sensor_type;location;lat;lon;timestamp;P1;durP1;ratioP1;P2;durP2;ratioP2
3343;SDS011;1685;53.104;8.228;2024-02-04T00:01:28;8.67;;;4.10;;
3343;SDS011;1685;53.104;8.228;2024-02-04T00:03:55;9.60;;;4.20;;
3343;SDS011;1685;53.104;8.228;2024-02-04T00:06:22;14.33;;;5.13;;
3343;SDS011;1685;53.104;8.228;2024-02-04T00:08:50;7.13;;;4.73;;
3343;SDS011;1685;53.104;8.228;2024-02-04T00:11:18;13.60;;;4.70;;
3343;SDS011;1685;53.104;8.228;2024-02-04T00:13:45;9.87;;;4.80;;
3343;SDS011;1685;53.104;8.228;2024-02-04T00:16:13;10.60;;;4.40;;
3343;SDS011;1685;53.104;8.228;2024-02-04T00:18:40;12.43;;;4.53;;
3343;SDS011;1685;53.104;8.228;2024-02-04T00:21:07;13.83;;;6.20;;
3343;SDS011;1685;53.104;8.228;2024-02-04T00:23:34;10.47;;;5.17;;
3343;SDS011;1685;53.104;8.228;2024-02-04T00:26:01;9.03;;;4.93;;
3343;SDS011;1685;53.104;8.228;2024-02-04T00:28:30;12.50;;;4.90;;
3343;SDS011;1685;53.104;8.228;2024-02-04T00:30:57;9.23;;;4.87;;
3343;SDS011;1685;53.104;8.228;2024-02-04T00:33:24;14.70;;;5.80;;
3343;SDS011;1685;53.104;8.228;2024-02-04T00:35:51;8.47;;;5.03;;
3343;SDS011;1685;53.104;8.228;2024-02-04T00:38:19;13.47;;;5.30;;
3343;SDS011;1685;53.104;8.228;2024-02-04T00:40:46;22.93;;;6.20;;
3343;SDS011;1685;53.104;8.228;2024-02-04T00:43:13;12.07;;;4.83;;
3343;SDS011;1685;53.104;8.228;2024-02-04T00:45:41;14.90;;;5.30;;
3343;SDS011;1685;53.104;8.228;2024-02-04T00:48:08;13.47;;;5.70;;
3343;SDS011;1685;53.104;8.228;2024-02-04T00:50:36;14.27;;;5.77;;
3343;SDS011;1685;53.104;8.228;2024-02-04T00:53:03;13.43;;;5.47;;
3343;SDS011;1685;53.104;8.228;2024-02-04T00:55:30;18.00;;;5.40;;
3343;SDS011;1685;53.104;8.228;2024-02-04T00:57:57;17.50;;;5.57;;
3343;SDS011;1685;53.104;8.228;2024-02-04T01:00:26;20.13;;;5.60;;
3343;SDS011;1685;53.104;8.228;2024-02-04T01:02:55;11.83;;;5.97;;
3343;SDS011;1685;53.104;8.228;2024-02-04T01:05:22;12.20;;;6.37;;
3343;SDS011;1685;53.104;8.228;2024-02-04T01:07:49;30.47;;;7.47;;
3343;SDS011;1685;53.104;8.228;2024-02-04T01:10:16;13.17;;;6.90;;
3343;SDS011;1685;53.104;8.228;2024-02-04T01:12:43;11.63;;;6.43;;
3343;SDS011;1685;53.104;8.228;2024-02-04T01:15:10;24.73;;;7.10;;
3343;SDS011;1685;53.104;8.228;2024-02-04T01:17:38;18.30;;;7.77;;
3343;SDS011;1685;53.104;8.228;2024-02-04T01:20:07;14.17;;;7.90;;
3343;SDS011;1685;53.104;8.228;2024-02-04T01:22:34;16.13;;;7.20;;
3343;SDS011;1685;53.104;8.228;2024-02-04T01:25:01;20.93;;;7.13;;
3343;SDS011;1685;53.104;8.228;2024-02-04T01:27:29;13.87;;;7.43;;
3343;SDS011;1685;53.104;8.228;2024-02-04T01:29:56;22.07;;;7.33;;
3343;SDS011;1685;53.104;8.228;2024-02-04T01:32:24;31.23;;;9.30;;
3343;SDS011;1685;53.104;8.228;2024-02-04T01:34:51;19.30;;;8.70;;
3343;SDS011;1685;53.104;8.228;2024-02-04T01:37:19;16.80;;;8.60;;
3343;SDS011;1685;53.104;8.228;2024-02-04T01:39:46;22.73;;;7.97;;
3343;SDS011;1685;53.104;8.228;2024-02-04T01:42:14;18.70;;;7.77;;
3343;SDS011;1685;53.104;8.228;2024-02-04T01:44:41;13.87;;;8.53;;
3343;SDS011;1685;53.104;8.228;2024-02-04T01:47:08;14.63;;;7.90;;
3343;SDS011;1685;53.104;8.228;2024-02-04T01:49:35;13.03;;;7.50;;
3343;SDS011;1685;53.104;8.228;2024-02-04T01:52:03;13.47;;;6.53;;
3343;SDS011;1685;53.104;8.228;2024-02-04T01:54:32;28.47;;;8.63;;
3343;SDS011;1685;53.104;8.228;2024-02-04T01:57:00;21.03;;;7.13;;
3343;SDS011;1685;53.104;8.228;2024-02-04T01:59:27;17.07;;;8.33;;
3343;SDS011;1685;53.104;8.228;2024-02-04T02:01:55;19.40;;;6.80;;
3343;SDS011;1685;53.104;8.228;2024-02-04T02:04:23;11.07;;;6.00;;
3343;SDS011;1685;53.104;8.228;2024-02-04T02:06:50;18.43;;;5.97;;
3343;SDS011;1685;53.104;8.228;2024-02-04T02:09:18;7.83;;;5.90;;
3343;SDS011;1685;53.104;8.228;2024-02-04T02:11:47;15.97;;;6.17;;
3343;SDS011;1685;53.104;8.228;2024-02-04T02:14:16;13.90;;;6.03;;
3343;SDS011;1685;53.104;8.228;2024-02-04T02:16:45;15.27;;;6.70;;
3343;SDS011;1685;53.104;8.228;2024-02-04T02:19:17;16.53;;;5.80;;
3343;SDS011;1685;53.104;8.228;2024-02-04T02:21:50;13.30;;;6.03;;
3343;SDS011;1685;53.104;8.228;2024-02-04T02:24:28;9.67;;;5.17;;
3343;SDS011;1685;53.104;8.228;2024-02-04T02:26:55;15.57;;;5.83;;
3343;SDS011;1685;53.104;8.228;2024-02-04T02:29:23;12.97;;;5.23;;
3343;SDS011;1685;53.104;8.228;2024-02-04T02:31:51;12.27;;;4.93;;
3343;SDS011;1685;53.104;8.228;2024-02-04T02:34:18;16.67;;;4.43;;
3343;SDS011;1685;53.104;8.228;2024-02-04T02:36:45;17.83;;;5.07;;
3343;SDS011;1685;53.104;8.228;2024-02-04T02:39:18;15.63;;;5.40;;
3343;SDS011;1685;53.104;8.228;2024-02-04T02:41:49;13.10;;;4.73;;
3343;SDS011;1685;53.104;8.228;2024-02-04T02:44:17;8.00;;;4.30;;
3343;SDS011;1685;53.104;8.228;2024-02-04T02:46:45;13.67;;;4.80;;
3343;SDS011;1685;53.104;8.228;2024-02-04T02:49:13;13.33;;;4.00;;
3343;SDS011;1685;53.104;8.228;2024-02-04T02:51:40;9.43;;;3.93;;
3343;SDS011;1685;53.104;8.228;2024-02-04T02:54:07;6.60;;;3.80;;
3343;SDS011;1685;53.104;8.228;2024-02-04T02:56:34;11.07;;;3.70;;
3343;SDS011;1685;53.104;8.228;2024-02-04T02:59:03;18.00;;;4.23;;
3343;SDS011;1685;53.104;8.228;2024-02-04T03:01:30;14.20;;;4.00;;
3343;SDS011;1685;53.104;8.228;2024-02-04T03:03:57;20.50;;;4.77;;
3343;SDS011;1685;53.104;8.228;2024-02-04T03:06:24;12.33;;;3.90;;
3343;SDS011;1685;53.104;8.228;2024-02-04T03:08:52;9.13;;;4.20;;
3343;SDS011;1685;53.104;8.228;2024-02-04T03:11:19;14.33;;;3.57;;
3343;SDS011;1685;53.104;8.228;2024-02-04T03:13:46;8.93;;;3.40;;
3343;SDS011;1685;53.104;8.228;2024-02-04T03:16:15;20.77;;;4.60;;
3343;SDS011;1685;53.104;8.228;2024-02-04T03:18:42;15.10;;;3.77;;
3343;SDS011;1685;53.104;8.228;2024-02-04T03:21:12;8.73;;;3.40;;
3343;SDS011;1685;53.104;8.228;2024-02-04T03:23:40;9.57;;;3.10;;
3343;SDS011;1685;53.104;8.228;2024-02-04T03:26:07;15.07;;;3.90;;
3343;SDS011;1685;53.104;8.228;2024-02-04T03:28:35;14.53;;;3.17;;
3343;SDS011;1685;53.104;8.228;2024-02-04T03:31:04;8.73;;;3.13;;
3343;SDS011;1685;53.104;8.228;2024-02-04T03:33:33;9.50;;;2.90;;
3343;SDS011;1685;53.104;8.228;2024-02-04T03:36:00;7.97;;;2.93;;
3343;SDS011;1685;53.104;8.228;2024-02-04T03:38:27;12.43;;;3.17;;
3343;SDS011;1685;53.104;8.228;2024-02-04T03:40:54;26.13;;;3.53;;
3343;SDS011;1685;53.104;8.228;2024-02-04T03:43:21;13.23;;;3.20;;
3343;SDS011;1685;53.104;8.228;2024-02-04T03:45:48;8.90;;;3.77;;
3343;SDS011;1685;53.104;8.228;2024-02-04T03:48:16;14.83;;;3.90;;
3343;SDS011;1685;53.104;8.228;2024-02-04T03:50:44;10.83;;;3.27;;
3343;SDS011;1685;53.104;8.228;2024-02-04T03:53:11;14.10;;;3.53;;
3343;SDS011;1685;53.104;8.228;2024-02-04T03:55:38;14.00;;;3.33;;
3343;SDS011;1685;53.104;8.228;2024-02-04T03:58:05;9.13;;;3.07;;
3343;SDS011;1685;53.104;8.228;2024-02-04T04:00:33;12.57;;;3.73;;
3343;SDS011;1685;53.104;8.228;2024-02-04T04:03:00;7.00;;;2.97;;
3343;SDS011;1685;53.104;8.228;2024-02-04T04:05:27;22.97;;;3.40;;
3343;SDS011;1685;53.104;8.228;2024-02-04T04:07:56;9.03;;;2.73;;
3343;SDS011;1685;53.104;8.228;2024-02-04T04:10:23;13.83;;;2.90;;
3343;SDS011;1685;53.104;8.228;2024-02-04T04:12:50;13.97;;;3.67;;
3343;SDS011;1685;53.104;8.228;2024-02-04T04:15:17;10.87;;;3.43;;
3343;SDS011;1685;53.104;8.228;2024-02-04T04:17:44;10.20;;;2.57;;
3343;SDS011;1685;53.104;8.228;2024-02-04T04:20:12;8.90;;;2.50;;
3343;SDS011;1685;53.104;8.228;2024-02-04T04:22:39;8.53;;;2.57;;
3343;SDS011;1685;53.104;8.228;2024-02-04T04:25:08;7.73;;;2.57;;
3343;SDS011;1685;53.104;8.228;2024-02-04T04:27:36;9.90;;;2.83;;
3343;SDS011;1685;53.104;8.228;2024-02-04T04:30:03;5.60;;;2.13;;
3343;SDS011;1685;53.104;8.228;2024-02-04T04:32:30;9.37;;;2.80;;
3343;SDS011;1685;53.104;8.228;2024-02-04T04:34:57;10.63;;;3.00;;
3343;SDS011;1685;53.104;8.228;2024-02-04T04:37:25;7.03;;;2.33;;
3343;SDS011;1685;53.104;8.228;2024-02-04T04:39:52;9.63;;;2.93;;
3343;SDS011;1685;53.104;8.228;2024-02-04T04:42:20;17.33;;;2.30;;
3343;SDS011;1685;53.104;8.228;2024-02-04T04:44:47;13.70;;;3.17;;
3343;SDS011;1685;53.104;8.228;2024-02-04T04:47:14;10.90;;;3.00;;
3343;SDS011;1685;53.104;8.228;2024-02-04T04:49:42;7.27;;;2.10;;
3343;SDS011;1685;53.104;8.228;2024-02-04T04:52:11;11.60;;;3.40;;
3343;SDS011;1685;53.104;8.228;2024-02-04T04:54:39;7.13;;;2.23;;
3343;SDS011;1685;53.104;8.228;2024-02-04T04:57:06;15.20;;;3.70;;
3343;SDS011;1685;53.104;8.228;2024-02-04T04:59:34;12.90;;;2.03;;
3343;SDS011;1685;53.104;8.228;2024-02-04T05:02:03;11.63;;;2.70;;
3343;SDS011;1685;53.104;8.228;2024-02-04T05:04:30;9.60;;;2.43;;
3343;SDS011;1685;53.104;8.228;2024-02-04T05:06:57;14.00;;;2.50;;
3343;SDS011;1685;53.104;8.228;2024-02-04T05:09:25;8.10;;;2.73;;
3343;SDS011;1685;53.104;8.228;2024-02-04T05:11:52;10.47;;;2.83;;
3343;SDS011;1685;53.104;8.228;2024-02-04T05:14:19;11.23;;;2.20;;
3343;SDS011;1685;53.104;8.228;2024-02-04T05:16:48;5.90;;;2.37;;
3343;SDS011;1685;53.104;8.228;2024-02-04T05:19:15;10.17;;;3.20;;
3343;SDS011;1685;53.104;8.228;2024-02-04T05:21:42;10.50;;;2.70;;
3343;SDS011;1685;53.104;8.228;2024-02-04T05:24:10;9.30;;;2.97;;
3343;SDS011;1685;53.104;8.228;2024-02-04T05:26:37;10.63;;;2.87;;
3343;SDS011;1685;53.104;8.228;2024-02-04T05:29:04;6.83;;;2.03;;
3343;SDS011;1685;53.104;8.228;2024-02-04T05:31:31;9.50;;;2.17;;
3343;SDS011;1685;53.104;8.228;2024-02-04T05:34:04;7.00;;;2.43;;
3343;SDS011;1685;53.104;8.228;2024-02-04T05:36:32;13.77;;;3.40;;
3343;SDS011;1685;53.104;8.228;2024-02-04T05:39:08;10.17;;;2.70;;
3343;SDS011;1685;53.104;8.228;2024-02-04T05:41:35;12.13;;;2.77;;
3343;SDS011;1685;53.104;8.228;2024-02-04T05:44:02;11.70;;;3.13;;
3343;SDS011;1685;53.104;8.228;2024-02-04T05:46:30;5.57;;;3.70;;
3343;SDS011;1685;53.104;8.228;2024-02-04T05:48:57;12.77;;;2.90;;
3343;SDS011;1685;53.104;8.228;2024-02-04T05:51:25;7.73;;;2.90;;
3343;SDS011;1685;53.104;8.228;2024-02-04T05:53:53;10.57;;;3.07;;
3343;SDS011;1685;53.104;8.228;2024-02-04T05:56:20;20.33;;;3.20;;
3343;SDS011;1685;53.104;8.228;2024-02-04T05:58:47;4.73;;;3.20;;
3343;SDS011;1685;53.104;8.228;2024-02-04T06:01:15;7.37;;;2.67;;
3343;SDS011;1685;53.104;8.228;2024-02-04T06:03:42;7.07;;;2.83;;
3343;SDS011;1685;53.104;8.228;2024-02-04T06:06:10;9.23;;;2.60;;
3343;SDS011;1685;53.104;8.228;2024-02-04T06:08:42;14.30;;;3.37;;
3343;SDS011;1685;53.104;8.228;2024-02-04T06:11:09;7.33;;;3.43;;
3343;SDS011;1685;53.104;8.228;2024-02-04T06:13:38;8.13;;;3.73;;
3343;SDS011;1685;53.104;8.228;2024-02-04T06:16:05;6.73;;;3.50;;
3343;SDS011;1685;53.104;8.228;2024-02-04T06:18:32;10.53;;;4.03;;
3343;SDS011;1685;53.104;8.228;2024-02-04T06:21:00;12.27;;;4.30;;
3343;SDS011;1685;53.104;8.228;2024-02-04T06:23:27;12.70;;;4.20;;
3343;SDS011;1685;53.104;8.228;2024-02-04T06:25:55;9.43;;;3.20;;
3343;SDS011;1685;53.104;8.228;2024-02-04T06:28:22;7.97;;;3.60;;
3343;SDS011;1685;53.104;8.228;2024-02-04T06:30:49;9.33;;;4.00;;
3343;SDS011;1685;53.104;8.228;2024-02-04T06:33:17;16.00;;;4.50;;
3343;SDS011;1685;53.104;8.228;2024-02-04T06:35:44;14.03;;;4.43;;
3343;SDS011;1685;53.104;8.228;2024-02-04T06:38:11;11.40;;;3.90;;
3343;SDS011;1685;53.104;8.228;2024-02-04T06:40:38;11.60;;;5.00;;
3343;SDS011;1685;53.104;8.228;2024-02-04T06:43:07;10.23;;;4.10;;
3343;SDS011;1685;53.104;8.228;2024-02-04T06:45:34;8.10;;;4.60;;
3343;SDS011;1685;53.104;8.228;2024-02-04T06:48:01;13.10;;;4.33;;
3343;SDS011;1685;53.104;8.228;2024-02-04T06:50:28;12.60;;;4.60;;
3343;SDS011;1685;53.104;8.228;2024-02-04T06:52:56;11.10;;;4.67;;
3343;SDS011;1685;53.104;8.228;2024-02-04T06:55:23;13.93;;;3.97;;
3343;SDS011;1685;53.104;8.228;2024-02-04T06:57:50;12.57;;;4.27;;
3343;SDS011;1685;53.104;8.228;2024-02-04T07:00:18;10.73;;;3.77;;
3343;SDS011;1685;53.104;8.228;2024-02-04T07:02:46;14.90;;;3.53;;
3343;SDS011;1685;53.104;8.228;2024-02-04T07:05:13;10.63;;;3.80;;
3343;SDS011;1685;53.104;8.228;2024-02-04T07:07:41;13.50;;;4.20;;
3343;SDS011;1685;53.104;8.228;2024-02-04T07:10:08;12.80;;;3.20;;
3343;SDS011;1685;53.104;8.228;2024-02-04T07:12:35;11.30;;;3.87;;
3343;SDS011;1685;53.104;8.228;2024-02-04T07:15:02;12.77;;;2.87;;
3343;SDS011;1685;53.104;8.228;2024-02-04T07:17:31;6.90;;;3.27;;
3343;SDS011;1685;53.104;8.228;2024-02-04T07:19:58;6.77;;;2.67;;
3343;SDS011;1685;53.104;8.228;2024-02-04T07:22:25;16.80;;;4.90;;
3343;SDS011;1685;53.104;8.228;2024-02-04T07:24:52;7.57;;;3.00;;
3343;SDS011;1685;53.104;8.228;2024-02-04T07:27:20;12.80;;;3.13;;
3343;SDS011;1685;53.104;8.228;2024-02-04T07:29:47;12.97;;;4.50;;
3343;SDS011;1685;53.104;8.228;2024-02-04T07:32:14;10.90;;;3.03;;
3343;SDS011;1685;53.104;8.228;2024-02-04T07:34:43;16.00;;;3.80;;
3343;SDS011;1685;53.104;8.228;2024-02-04T07:37:10;9.80;;;2.80;;
3343;SDS011;1685;53.104;8.228;2024-02-04T07:39:37;11.90;;;2.40;;
3343;SDS011;1685;53.104;8.228;2024-02-04T07:42:04;13.77;;;3.53;;
3343;SDS011;1685;53.104;8.228;2024-02-04T07:44:32;9.20;;;2.90;;
3343;SDS011;1685;53.104;8.228;2024-02-04T07:46:59;15.40;;;2.50;;
3343;SDS011;1685;53.104;8.228;2024-02-04T07:49:26;9.37;;;3.00;;
3343;SDS011;1685;53.104;8.228;2024-02-04T07:51:54;10.70;;;2.83;;
3343;SDS011;1685;53.104;8.228;2024-02-04T07:54:22;8.00;;;3.10;;
3343;SDS011;1685;53.104;8.228;2024-02-04T07:56:49;7.60;;;2.30;;
3343;SDS011;1685;53.104;8.228;2024-02-04T07:59:16;9.67;;;3.13;;
3343;SDS011;1685;53.104;8.228;2024-02-04T08:01:43;6.97;;;2.37;;
3343;SDS011;1685;53.104;8.228;2024-02-04T08:04:10;3.10;;;2.40;;
3343;SDS011;1685;53.104;8.228;2024-02-04T08:06:37;8.10;;;2.60;;
3343;SDS011;1685;53.104;8.228;2024-02-04T08:09:06;12.03;;;2.63;;
3343;SDS011;1685;53.104;8.228;2024-02-04T08:11:33;5.50;;;2.50;;
3343;SDS011;1685;53.104;8.228;2024-02-04T08:14:00;14.30;;;2.40;;
3343;SDS011;1685;53.104;8.228;2024-02-04T08:16:27;14.17;;;3.10;;
3343;SDS011;1685;53.104;8.228;2024-02-04T08:18:55;14.13;;;2.07;;
3343;SDS011;1685;53.104;8.228;2024-02-04T08:21:22;17.47;;;2.53;;
3343;SDS011;1685;53.104;8.228;2024-02-04T08:23:51;8.63;;;2.50;;
3343;SDS011;1685;53.104;8.228;2024-02-04T08:26:20;11.33;;;2.30;;
3343;SDS011;1685;53.104;8.228;2024-02-04T08:28:47;6.63;;;2.40;;
3343;SDS011;1685;53.104;8.228;2024-02-04T08:31:14;11.33;;;2.60;;
3343;SDS011;1685;53.104;8.228;2024-02-04T08:33:41;7.53;;;2.40;;
3343;SDS011;1685;53.104;8.228;2024-02-04T08:36:09;11.67;;;3.30;;
3343;SDS011;1685;53.104;8.228;2024-02-04T08:38:36;11.83;;;3.60;;
3343;SDS011;1685;53.104;8.228;2024-02-04T08:41:03;7.87;;;2.63;;
3343;SDS011;1685;53.104;8.228;2024-02-04T08:43:32;13.33;;;2.57;;
3343;SDS011;1685;53.104;8.228;2024-02-04T08:45:59;10.23;;;3.50;;
3343;SDS011;1685;53.104;8.228;2024-02-04T08:48:26;12.47;;;2.60;;
3343;SDS011;1685;53.104;8.228;2024-02-04T08:50:53;5.73;;;2.20;;
3343;SDS011;1685;53.104;8.228;2024-02-04T08:53:20;14.90;;;2.57;;
3343;SDS011;1685;53.104;8.228;2024-02-04T08:55:48;10.73;;;2.90;;
3343;SDS011;1685;53.104;8.228;2024-02-04T08:58:15;16.30;;;3.27;;
3343;SDS011;1685;53.104;8.228;2024-02-04T09:00:43;4.80;;;2.27;;
3343;SDS011;1685;53.104;8.228;2024-02-04T09:03:10;16.97;;;2.30;;
3343;SDS011;1685;53.104;8.228;2024-02-04T09:05:37;7.70;;;2.67;;
3343;SDS011;1685;53.104;8.228;2024-02-04T09:08:05;8.67;;;2.00;;
3343;SDS011;1685;53.104;8.228;2024-02-04T09:10:32;10.83;;;2.63;;
3343;SDS011;1685;53.104;8.228;2024-02-04T09:12:59;8.60;;;2.83;;
3343;SDS011;1685;53.104;8.228;2024-02-04T09:15:26;13.87;;;2.67;;
3343;SDS011;1685;53.104;8.228;2024-02-04T09:17:55;7.90;;;2.40;;
3343;SDS011;1685;53.104;8.228;2024-02-04T09:20:22;13.13;;;2.83;;
3343;SDS011;1685;53.104;8.228;2024-02-04T09:22:49;4.60;;;2.40;;
3343;SDS011;1685;53.104;8.228;2024-02-04T09:25:16;9.07;;;1.90;;
3343;SDS011;1685;53.104;8.228;2024-02-04T09:27:43;15.77;;;3.87;;
3343;SDS011;1685;53.104;8.228;2024-02-04T09:30:11;7.40;;;2.50;;
3343;SDS011;1685;53.104;8.228;2024-02-04T09:32:38;10.37;;;4.47;;
3343;SDS011;1685;53.104;8.228;2024-02-04T09:35:07;7.80;;;2.57;;
3343;SDS011;1685;53.104;8.228;2024-02-04T09:37:35;14.70;;;3.40;;
3343;SDS011;1685;53.104;8.228;2024-02-04T09:40:02;6.40;;;2.00;;
3343;SDS011;1685;53.104;8.228;2024-02-04T09:42:30;16.70;;;4.23;;
3343;SDS011;1685;53.104;8.228;2024-02-04T09:44:57;9.60;;;3.00;;
3343;SDS011;1685;53.104;8.228;2024-02-04T09:47:25;9.73;;;2.70;;
3343;SDS011;1685;53.104;8.228;2024-02-04T09:49:52;17.07;;;3.00;;
3343;SDS011;1685;53.104;8.228;2024-02-04T09:52:25;5.43;;;2.33;;
3343;SDS011;1685;53.104;8.228;2024-02-04T09:54:54;13.50;;;2.70;;
3343;SDS011;1685;53.104;8.228;2024-02-04T09:57:22;11.95;;;2.60;;
3343;SDS011;1685;53.104;8.228;2024-02-04T09:59:49;17.73;;;2.97;;
3343;SDS011;1685;53.104;8.228;2024-02-04T10:02:16;14.30;;;2.93;;
3343;SDS011;1685;53.104;8.228;2024-02-04T10:04:45;7.23;;;2.53;;
3343;SDS011;1685;53.104;8.228;2024-02-04T10:07:12;13.43;;;3.80;;
3343;SDS011;1685;53.104;8.228;2024-02-04T10:09:43;18.77;;;3.50;;
3343;SDS011;1685;53.104;8.228;2024-02-04T10:12:10;13.03;;;3.40;;
3343;SDS011;1685;53.104;8.228;2024-02-04T10:14:39;8.77;;;2.70;;
3343;SDS011;1685;53.104;8.228;2024-02-04T10:17:06;10.50;;;2.73;;
3343;SDS011;1685;53.104;8.228;2024-02-04T10:19:33;13.43;;;3.30;;
3343;SDS011;1685;53.104;8.228;2024-02-04T10:22:01;10.10;;;2.40;;
3343;SDS011;1685;53.104;8.228;2024-02-04T10:24:28;17.23;;;3.90;;
3343;SDS011;1685;53.104;8.228;2024-02-04T10:26:57;8.53;;;2.30;;
3343;SDS011;1685;53.104;8.228;2024-02-04T10:29:25;19.37;;;2.90;;
3343;SDS011;1685;53.104;8.228;2024-02-04T10:31:55;13.10;;;4.57;;
3343;SDS011;1685;53.104;8.228;2024-02-04T10:34:22;26.07;;;3.63;;
3343;SDS011;1685;53.104;8.228;2024-02-04T10:36:49;9.90;;;3.23;;
3343;SDS011;1685;53.104;8.228;2024-02-04T10:39:17;13.07;;;3.50;;
3343;SDS011;1685;53.104;8.228;2024-02-04T10:41:47;15.17;;;3.13;;
3343;SDS011;1685;53.104;8.228;2024-02-04T10:44:22;16.87;;;3.47;;
3343;SDS011;1685;53.104;8.228;2024-02-04T10:46:50;10.07;;;3.27;;
3343;SDS011;1685;53.104;8.228;2024-02-04T10:49:18;3.50;;;2.40;;
3343;SDS011;1685;53.104;8.228;2024-02-04T10:51:45;8.90;;;3.97;;
3343;SDS011;1685;53.104;8.228;2024-02-04T10:54:14;6.93;;;2.60;;
3343;SDS011;1685;53.104;8.228;2024-02-04T10:56:43;12.10;;;3.07;;
3343;SDS011;1685;53.104;8.228;2024-02-04T10:59:11;8.57;;;3.27;;
3343;SDS011;1685;53.104;8.228;2024-02-04T11:01:39;18.53;;;3.60;;
3343;SDS011;1685;53.104;8.228;2024-02-04T11:04:10;6.67;;;3.00;;
3343;SDS011;1685;53.104;8.228;2024-02-04T11:06:37;10.23;;;2.63;;
3343;SDS011;1685;53.104;8.228;2024-02-04T11:09:04;9.47;;;3.00;;
3343;SDS011;1685;53.104;8.228;2024-02-04T11:11:32;8.00;;;2.90;;
3343;SDS011;1685;53.104;8.228;2024-02-04T11:14:00;10.17;;;3.30;;
3343;SDS011;1685;53.104;8.228;2024-02-04T11:16:31;9.37;;;2.97;;
3343;SDS011;1685;53.104;8.228;2024-02-04T11:21:59;8.27;;;3.10;;
3343;SDS011;1685;53.104;8.228;2024-02-04T11:24:33;8.10;;;3.30;;
3343;SDS011;1685;53.104;8.228;2024-02-04T11:27:04;9.90;;;3.60;;
3343;SDS011;1685;53.104;8.228;2024-02-04T11:29:31;11.90;;;3.77;;
3343;SDS011;1685;53.104;8.228;2024-02-04T11:32:00;6.10;;;2.57;;
3343;SDS011;1685;53.104;8.228;2024-02-04T11:34:27;9.33;;;3.20;;
3343;SDS011;1685;53.104;8.228;2024-02-04T11:36:56;10.77;;;2.87;;
3343;SDS011;1685;53.104;8.228;2024-02-04T11:39:24;6.80;;;3.53;;
3343;SDS011;1685;53.104;8.228;2024-02-04T11:41:52;6.70;;;2.90;;
3343;SDS011;1685;53.104;8.228;2024-02-04T11:44:21;12.60;;;3.20;;
3343;SDS011;1685;53.104;8.228;2024-02-04T11:46:49;11.33;;;3.00;;
3343;SDS011;1685;53.104;8.228;2024-02-04T11:49:16;7.37;;;2.80;;
3343;SDS011;1685;53.104;8.228;2024-02-04T11:51:44;12.10;;;3.03;;
3343;SDS011;1685;53.104;8.228;2024-02-04T11:54:15;13.60;;;2.80;;
3343;SDS011;1685;53.104;8.228;2024-02-04T11:56:44;12.17;;;2.77;;
3343;SDS011;1685;53.104;8.228;2024-02-04T11:59:17;8.23;;;2.30;;
3343;SDS011;1685;53.104;8.228;2024-02-04T12:01:45;6.30;;;2.53;;
3343;SDS011;1685;53.104;8.228;2024-02-04T12:04:13;8.50;;;3.90;;
3343;SDS011;1685;53.104;8.228;2024-02-04T12:06:42;5.00;;;2.47;;
3343;SDS011;1685;53.104;8.228;2024-02-04T12:09:10;5.57;;;2.20;;
3343;SDS011;1685;53.104;8.228;2024-02-04T12:11:43;10.63;;;2.63;;
3343;SDS011;1685;53.104;8.228;2024-02-04T12:14:10;11.50;;;2.97;;
3343;SDS011;1685;53.104;8.228;2024-02-04T12:16:38;4.93;;;2.43;;
3343;SDS011;1685;53.104;8.228;2024-02-04T12:19:05;13.37;;;2.00;;
3343;SDS011;1685;53.104;8.228;2024-02-04T12:21:32;8.00;;;2.40;;
3343;SDS011;1685;53.104;8.228;2024-02-04T12:24:01;9.17;;;2.50;;
3343;SDS011;1685;53.104;8.228;2024-02-04T12:26:28;8.60;;;2.70;;
3343;SDS011;1685;53.104;8.228;2024-02-04T12:28:57;11.50;;;2.90;;
3343;SDS011;1685;53.104;8.228;2024-02-04T12:31:25;6.93;;;3.00;;
3343;SDS011;1685;53.104;8.228;2024-02-04T12:33:54;6.70;;;2.40;;
3343;SDS011;1685;53.104;8.228;2024-02-04T12:36:22;17.77;;;3.33;;
3343;SDS011;1685;53.104;8.228;2024-02-04T12:38:51;20.17;;;5.90;;
3343;SDS011;1685;53.104;8.228;2024-02-04T12:41:19;13.27;;;3.90;;
3343;SDS011;1685;53.104;8.228;2024-02-04T12:43:49;9.80;;;2.13;;
3343;SDS011;1685;53.104;8.228;2024-02-04T12:46:17;5.50;;;3.03;;
3343;SDS011;1685;53.104;8.228;2024-02-04T12:48:45;10.93;;;3.90;;
3343;SDS011;1685;53.104;8.228;2024-02-04T12:51:12;12.63;;;6.83;;
3343;SDS011;1685;53.104;8.228;2024-02-04T12:53:49;9.70;;;3.63;;
3343;SDS011;1685;53.104;8.228;2024-02-04T12:56:17;8.33;;;3.93;;
3343;SDS011;1685;53.104;8.228;2024-02-04T12:58:44;8.03;;;3.60;;
3343;SDS011;1685;53.104;8.228;2024-02-04T13:01:12;4.77;;;2.33;;
3343;SDS011;1685;53.104;8.228;2024-02-04T13:03:41;7.40;;;2.03;;
3343;SDS011;1685;53.104;8.228;2024-02-04T13:06:08;10.13;;;3.30;;
3343;SDS011;1685;53.104;8.228;2024-02-04T13:08:35;5.50;;;3.40;;
3343;SDS011;1685;53.104;8.228;2024-02-04T13:11:02;8.47;;;2.50;;
3343;SDS011;1685;53.104;8.228;2024-02-04T13:13:30;13.07;;;3.07;;
3343;SDS011;1685;53.104;8.228;2024-02-04T13:15:57;8.90;;;2.37;;
3343;SDS011;1685;53.104;8.228;2024-02-04T13:18:24;7.57;;;3.00;;
3343;SDS011;1685;53.104;8.228;2024-02-04T13:20:53;10.23;;;4.30;;
3343;SDS011;1685;53.104;8.228;2024-02-04T13:23:20;12.00;;;3.10;;
3343;SDS011;1685;53.104;8.228;2024-02-04T13:25:47;11.03;;;4.10;;
3343;SDS011;1685;53.104;8.228;2024-02-04T13:28:14;13.83;;;3.43;;
3343;SDS011;1685;53.104;8.228;2024-02-04T13:30:43;7.73;;;3.50;;
3343;SDS011;1685;53.104;8.228;2024-02-04T13:33:10;12.90;;;3.70;;
3343;SDS011;1685;53.104;8.228;2024-02-04T13:35:38;22.43;;;3.53;;
3343;SDS011;1685;53.104;8.228;2024-02-04T13:38:07;11.40;;;2.83;;
3343;SDS011;1685;53.104;8.228;2024-02-04T13:40:34;5.77;;;2.30;;
3343;SDS011;1685;53.104;8.228;2024-02-04T13:43:02;10.77;;;2.43;;
3343;SDS011;1685;53.104;8.228;2024-02-04T13:45:29;9.23;;;3.40;;
3343;SDS011;1685;53.104;8.228;2024-02-04T13:47:56;17.23;;;2.97;;
3343;SDS011;1685;53.104;8.228;2024-02-04T13:50:23;5.30;;;2.60;;
3343;SDS011;1685;53.104;8.228;2024-02-04T13:52:51;9.60;;;2.90;;
3343;SDS011;1685;53.104;8.228;2024-02-04T13:55:19;8.77;;;3.47;;
3343;SDS011;1685;53.104;8.228;2024-02-04T13:57:46;6.77;;;2.90;;
3343;SDS011;1685;53.104;8.228;2024-02-04T14:00:14;14.33;;;3.37;;
3343;SDS011;1685;53.104;8.228;2024-02-04T14:02:42;9.33;;;2.40;;
3343;SDS011;1685;53.104;8.228;2024-02-04T14:05:09;6.40;;;2.87;;
3343;SDS011;1685;53.104;8.228;2024-02-04T14:07:37;9.43;;;3.20;;
3343;SDS011;1685;53.104;8.228;2024-02-04T14:10:04;7.73;;;3.60;;
3343;SDS011;1685;53.104;8.228;2024-02-04T14:12:33;8.57;;;3.73;;
3343;SDS011;1685;53.104;8.228;2024-02-04T14:15:00;10.43;;;3.00;;
3343;SDS011;1685;53.104;8.228;2024-02-04T14:17:27;8.90;;;4.10;;
3343;SDS011;1685;53.104;8.228;2024-02-04T14:19:54;6.33;;;2.67;;
3343;SDS011;1685;53.104;8.228;2024-02-04T14:22:23;7.40;;;3.23;;
3343;SDS011;1685;53.104;8.228;2024-02-04T14:24:50;3.47;;;2.30;;
3343;SDS011;1685;53.104;8.228;2024-02-04T14:27:18;5.23;;;2.40;;
3343;SDS011;1685;53.104;8.228;2024-02-04T14:29:46;11.13;;;3.97;;
3343;SDS011;1685;53.104;8.228;2024-02-04T14:32:14;5.63;;;2.17;;
3343;SDS011;1685;53.104;8.228;2024-02-04T14:34:41;9.77;;;2.30;;
3343;SDS011;1685;53.104;8.228;2024-02-04T14:37:08;10.20;;;3.40;;
3343;SDS011;1685;53.104;8.228;2024-02-04T14:39:35;7.37;;;3.73;;
3343;SDS011;1685;53.104;8.228;2024-02-04T14:42:03;8.70;;;3.17;;
3343;SDS011;1685;53.104;8.228;2024-02-04T14:44:30;4.10;;;3.30;;
3343;SDS011;1685;53.104;8.228;2024-02-04T14:46:59;7.13;;;2.80;;
3343;SDS011;1685;53.104;8.228;2024-02-04T14:49:26;5.40;;;2.23;;
3343;SDS011;1685;53.104;8.228;2024-02-04T14:51:54;5.73;;;2.80;;
3343;SDS011;1685;53.104;8.228;2024-02-04T14:54:21;8.80;;;3.23;;
3343;SDS011;1685;53.104;8.228;2024-02-04T14:56:48;5.73;;;2.83;;
3343;SDS011;1685;53.104;8.228;2024-02-04T14:59:16;6.00;;;2.50;;
3343;SDS011;1685;53.104;8.228;2024-02-04T15:01:44;8.57;;;2.50;;
3343;SDS011;1685;53.104;8.228;2024-02-04T15:04:13;6.30;;;3.47;;
3343;SDS011;1685;53.104;8.228;2024-02-04T15:06:41;7.53;;;2.87;;
3343;SDS011;1685;53.104;8.228;2024-02-04T15:09:09;5.90;;;2.23;;
3343;SDS011;1685;53.104;8.228;2024-02-04T15:11:37;8.63;;;3.10;;
3343;SDS011;1685;53.104;8.228;2024-02-04T15:14:04;11.70;;;3.37;;